Adger, AL

11:17 AM CST on February 01, 2015 (GMT -0600)
Birmingham International | Change Station
CLOSE
Current Station
Airport
Location: Birmingham,
Elevation: 630 ft
Nearby Weather Stations

Elev 630 ft 33.57 °N, 86.74 °W | Updated 9 minutes ago

Rain
Rain
50 °F
Feels Like 50 °F
N
13
Wind Variable Wind from SE

Today
High -- | Low -- °F
--% Chance of Precip.
Yesterday
High -- | Low -- °F
Precip. -- in
6:44 AM 5:20 PM
Waxing Gibbous, 95% visible
Pressure 30.04 in
Visibility 5.0 miles
Clouds Mostly Cloudy 900 ft
Mostly Cloudy 3800 ft
Overcast 6500 ft
Dew Point 48 °F
Humidity 93%
Rainfall 0.09 in
Snow Depth Not available.
UV 1 out of 12
Pollen 4.20 out of 12
Air Quality Not available.
Flu Activity Not available.
SPECI KBHM 011708Z 14011KT 5SM -RA BR BKN009 BKN038 OVC065 10/09 A3004 RMK AO2 P0002 T01000089

More Conditions Fewer Conditions

Pressure 30.04 in
Visibility 5.0 miles
Clouds Mostly Cloudy 900 ft
Mostly Cloudy 3800 ft
Overcast 6500 ft
Dew Point 48 °F
Humidity 93%
Rainfall 0.09 in
Snow Depth Not available.
UV 1 out of 12
Pollen 4.20 out of 12
Air Quality Not available.
Flu Activity Not available.
SPECI KBHM 011708Z 14011KT 5SM -RA BR BKN009 BKN038 OVC065 10/09 A3004 RMK AO2 P0002 T01000089

More Conditions Fewer Conditions

10-Day Weather Forecast

Almanac

Astronomy

Feb. 01, 2015 Rise Set
Actual Time
Civil Twilight
Nautical Twilight
Astronomical Twilight
Moon
Length of Visible Light
Length of Day
Tomorrow will be .
, % of the Moon is Illuminated

Today's Extremes

State Highs State Lows

Community

WunderPhotos

Upload Photos

1,792,394 photos uploaded!

WunderBlogs® & News

Nearby

Air Quality

  Air Quality AQ Index Pollutant
Not available.

Snow Depth

Station Depth Elevation

Earthquake Activity

City Distance Mag. Time & Date
Minimum magnitude displayed is 2.5.

Coastal Water Temperatures

Place Temperature

Nearby Weather Stations